createdAt,value
2023-01-02T00:01:07.858Z,3.00
2023-01-02T00:03:34.883Z,3.63
2023-01-02T00:06:06.386Z,3.57
2023-01-02T00:08:33.620Z,3.20
2023-01-02T00:11:00.890Z,3.23
2023-01-02T00:13:27.886Z,3.37
2023-01-02T00:15:54.819Z,3.50
2023-01-02T00:18:21.799Z,2.80
2023-01-02T00:20:48.712Z,3.10
2023-01-02T00:23:15.608Z,3.10
2023-01-02T00:25:42.493Z,3.03
2023-01-02T00:28:09.363Z,3.63
2023-01-02T00:30:39.131Z,4.07
2023-01-02T00:33:08.829Z,4.37
2023-01-02T00:35:38.444Z,3.30
2023-01-02T00:38:06.247Z,3.30
2023-01-02T00:40:33.438Z,3.20
2023-01-02T00:43:00.449Z,3.30
2023-01-02T00:45:27.601Z,3.00
2023-01-02T00:47:54.523Z,3.70
2023-01-02T00:50:21.397Z,3.43
2023-01-02T00:52:48.293Z,3.17
2023-01-02T00:55:15.190Z,3.00
2023-01-02T00:57:42.123Z,3.20
2023-01-02T01:00:09.570Z,3.70
2023-01-02T01:02:36.564Z,3.70
2023-01-02T01:05:03.595Z,3.80
2023-01-02T01:07:30.510Z,3.70
2023-01-02T01:09:57.418Z,3.87
2023-01-02T01:12:24.335Z,3.83
2023-01-02T01:14:51.250Z,4.50
2023-01-02T01:17:18.181Z,4.13
2023-01-02T01:19:45.062Z,3.63
2023-01-02T01:22:12.109Z,4.87
2023-01-02T01:24:38.973Z,4.30
2023-01-02T01:27:05.855Z,4.30
2023-01-02T01:29:32.748Z,4.50
2023-01-02T01:31:59.679Z,3.70
2023-01-02T01:34:26.562Z,4.83
2023-01-02T01:36:53.466Z,4.47
2023-01-02T01:39:20.349Z,4.20
2023-01-02T01:41:47.237Z,5.30
2023-01-02T01:44:51.816Z,4.57
2023-01-02T01:47:42.634Z,4.07
2023-01-02T01:50:25.800Z,4.07
2023-01-02T01:53:06.361Z,4.20
2023-01-02T01:55:38.763Z,3.67
2023-01-02T01:58:10.712Z,5.10
2023-01-02T02:00:39.543Z,4.20
2023-01-02T02:03:15.864Z,4.30
2023-01-02T02:05:43.980Z,4.43
2023-01-02T02:08:40.219Z,4.63
2023-01-02T02:11:07.677Z,4.37
2023-01-02T02:13:34.779Z,4.40
2023-01-02T02:16:17.993Z,4.07
2023-01-02T02:19:08.051Z,4.40
2023-01-02T02:21:53.650Z,4.93
2023-01-02T02:24:39.662Z,5.00
2023-01-02T02:27:47.716Z,5.20
2023-01-02T02:30:20.223Z,5.07
2023-01-02T02:33:27.195Z,4.63
2023-01-02T02:36:22.082Z,5.30
2023-01-02T02:39:22.627Z,5.10
2023-01-02T02:42:46.811Z,5.90
2023-01-02T02:45:55.824Z,4.83
2023-01-02T02:48:47.452Z,5.03
2023-01-02T02:51:24.849Z,5.10
2023-01-02T02:54:00.156Z,6.70
2023-01-02T02:56:28.024Z,5.83
2023-01-02T02:58:55.606Z,5.70
2023-01-02T03:01:30.937Z,5.20
2023-01-02T03:03:58.594Z,5.53
2023-01-02T03:06:57.845Z,5.17
2023-01-02T03:09:56.903Z,6.00
2023-01-02T03:12:50.735Z,5.90
2023-01-02T03:15:28.729Z,5.20
2023-01-02T03:18:22.750Z,5.50
2023-01-02T03:21:10.521Z,5.30
2023-01-02T03:23:45.169Z,6.03
2023-01-02T03:26:16.518Z,5.87
2023-01-02T03:28:47.341Z,5.40
2023-01-02T03:31:19.371Z,5.87
2023-01-02T03:33:57.777Z,6.13
2023-01-02T03:36:29.263Z,6.10
2023-01-02T03:39:13.187Z,5.17
2023-01-02T03:41:51.439Z,5.00
2023-01-02T03:44:22.596Z,5.07
2023-01-02T03:47:06.210Z,5.57
2023-01-02T03:49:40.812Z,5.20
2023-01-02T03:52:07.783Z,6.00
2023-01-02T03:54:34.894Z,6.07
2023-01-02T03:57:06.573Z,6.40
2023-01-02T04:00:00.146Z,6.63
2023-01-02T04:02:55.107Z,6.37
2023-01-02T04:05:34.557Z,5.00
2023-01-02T04:08:21.089Z,6.43
2023-01-02T04:10:56.207Z,5.87
2023-01-02T04:13:44.407Z,6.27
2023-01-02T04:16:17.265Z,6.70
2023-01-02T04:18:55.748Z,6.87
2023-01-02T04:21:26.507Z,7.47
2023-01-02T04:24:02.210Z,7.67
2023-01-02T04:26:38.949Z,6.70
2023-01-02T04:29:05.935Z,8.27
2023-01-02T04:31:57.746Z,7.53
2023-01-02T04:34:28.060Z,7.57
2023-01-02T04:36:54.948Z,7.17
2023-01-02T04:39:23.476Z,6.53
2023-01-02T04:41:50.419Z,7.27
2023-01-02T04:44:17.389Z,6.93
2023-01-02T04:46:44.451Z,7.77
2023-01-02T04:49:11.418Z,7.23
2023-01-02T04:51:38.382Z,8.03
2023-01-02T04:54:05.307Z,7.43
2023-01-02T04:56:32.184Z,7.77
2023-01-02T04:58:59.094Z,6.60
2023-01-02T05:01:26.070Z,6.90
2023-01-02T05:03:53.117Z,6.73
2023-01-02T05:06:20.493Z,7.50
2023-01-02T05:08:47.501Z,6.47
2023-01-02T05:11:18.243Z,7.17
2023-01-02T05:13:45.671Z,6.03
2023-01-02T05:16:13.101Z,6.50
2023-01-02T05:18:40.049Z,5.57
2023-01-02T05:21:32.611Z,7.07
2023-01-02T05:24:02.575Z,6.13
2023-01-02T05:26:33.310Z,6.17
2023-01-02T05:29:00.759Z,6.17
2023-01-02T05:31:28.298Z,6.07
2023-01-02T05:33:58.371Z,6.70
2023-01-02T05:36:26.556Z,5.93
2023-01-02T05:38:54.102Z,5.50
2023-01-02T05:41:22.263Z,6.50
2023-01-02T05:43:49.176Z,6.20
2023-01-02T05:46:20.928Z,6.40
2023-01-02T05:48:48.332Z,6.17
2023-01-02T05:51:17.378Z,7.03
2023-01-02T05:53:44.398Z,7.20
2023-01-02T05:56:15.755Z,6.90
2023-01-02T05:58:46.164Z,6.30
2023-01-02T06:01:22.546Z,6.23
2023-01-02T06:03:53.030Z,6.20
2023-01-02T06:06:23.360Z,7.77
2023-01-02T06:08:50.534Z,7.20
2023-01-02T06:11:17.428Z,6.13
2023-01-02T06:13:44.317Z,6.87
2023-01-02T06:16:11.923Z,7.07
2023-01-02T06:18:39.917Z,6.47
2023-01-02T06:21:13.220Z,6.40
2023-01-02T06:23:40.936Z,5.90
2023-01-02T06:26:14.747Z,7.13
2023-01-02T06:28:42.087Z,6.40
2023-01-02T06:31:12.342Z,6.27
2023-01-02T06:33:39.393Z,6.30
2023-01-02T06:36:17.853Z,5.87
2023-01-02T06:38:45.598Z,6.33
2023-01-02T06:41:13.849Z,6.17
2023-01-02T06:43:46.829Z,6.43
2023-01-02T06:46:17.247Z,5.60
2023-01-02T06:48:44.533Z,6.00
2023-01-02T06:51:15.041Z,5.43
2023-01-02T06:53:43.725Z,6.50
2023-01-02T06:56:12.676Z,6.17
2023-01-02T06:58:39.959Z,6.60
2023-01-02T07:01:11.445Z,5.53
2023-01-02T07:03:38.680Z,6.27
2023-01-02T07:06:12.290Z,5.43
2023-01-02T07:08:40.049Z,5.97
2023-01-02T07:11:12.280Z,6.30
2023-01-02T07:13:40.516Z,5.70
2023-01-02T07:16:10.953Z,5.07
2023-01-02T07:18:38.092Z,5.50
2023-01-02T07:21:06.666Z,5.60
2023-01-02T07:23:34.459Z,5.60
2023-01-02T07:26:03.913Z,5.30
2023-01-02T07:28:31.718Z,4.30
2023-01-02T07:31:03.084Z,5.40
2023-01-02T07:33:30.672Z,5.80
2023-01-02T07:36:02.894Z,4.97
2023-01-02T07:38:30.759Z,5.30
2023-01-02T07:40:57.723Z,5.10
2023-01-02T07:43:25.443Z,5.23
2023-01-02T07:45:52.334Z,5.40
2023-01-02T07:48:19.533Z,5.70
2023-01-02T07:50:46.876Z,5.40
2023-01-02T07:53:13.906Z,5.60
2023-01-02T07:55:40.974Z,5.70
2023-01-02T07:58:07.999Z,4.73
2023-01-02T08:00:34.944Z,5.57
2023-01-02T08:03:02.123Z,6.80
2023-01-02T08:05:29.036Z,7.37
2023-01-02T08:07:55.897Z,7.97
2023-01-02T08:10:23.058Z,5.93
2023-01-02T08:12:49.922Z,4.60
2023-01-02T08:15:16.838Z,6.40
2023-01-02T08:17:43.796Z,5.23
2023-01-02T08:20:11.543Z,4.80
2023-01-02T08:22:38.498Z,5.07
2023-01-02T08:25:06.199Z,4.53
2023-01-02T08:27:33.236Z,4.30
2023-01-02T08:30:00.258Z,4.93
2023-01-02T08:32:27.452Z,4.90
2023-01-02T08:34:54.297Z,5.00
2023-01-02T08:37:21.507Z,5.20
2023-01-02T08:39:48.406Z,8.30
2023-01-02T08:42:15.274Z,8.37
2023-01-02T08:44:43.283Z,6.03
2023-01-02T08:47:10.270Z,9.20
2023-01-02T08:49:37.135Z,6.73
2023-01-02T08:52:04.022Z,5.03
2023-01-02T08:54:31.831Z,5.97
2023-01-02T08:56:58.750Z,7.33
2023-01-02T08:59:26.189Z,6.20
2023-01-02T09:01:53.875Z,5.00
2023-01-02T09:04:21.011Z,4.80
2023-01-02T09:06:48.101Z,6.97
2023-01-02T09:09:16.827Z,5.30
2023-01-02T09:11:50.214Z,4.63
2023-01-02T09:14:19.953Z,4.23
2023-01-02T09:16:47.317Z,5.10
2023-01-02T09:19:14.273Z,5.17
2023-01-02T09:21:41.122Z,5.33
2023-01-02T09:24:08.402Z,5.70
2023-01-02T09:26:37.989Z,5.40
2023-01-02T09:29:05.130Z,4.23
2023-01-02T09:31:32.203Z,4.50
2023-01-02T09:33:59.152Z,4.40
2023-01-02T09:36:26.116Z,4.40
2023-01-02T09:38:55.512Z,5.00
2023-01-02T09:41:38.804Z,4.30
2023-01-02T09:44:16.261Z,4.70
2023-01-02T09:46:50.805Z,5.00
2023-01-02T09:49:28.369Z,4.20
2023-01-02T09:51:55.487Z,5.10
2023-01-02T09:54:28.044Z,5.60
2023-01-02T09:57:15.321Z,4.80
2023-01-02T09:59:56.524Z,5.00
2023-01-02T10:03:17.028Z,4.43
2023-01-02T10:06:24.875Z,5.77
2023-01-02T10:09:30.074Z,4.17
2023-01-02T10:12:28.365Z,3.63
2023-01-02T10:15:06.941Z,3.90
2023-01-02T10:17:48.917Z,3.43
2023-01-02T10:20:28.200Z,3.70
2023-01-02T10:23:04.121Z,3.70
2023-01-02T10:25:39.724Z,3.70
2023-01-02T10:28:31.290Z,5.80
2023-01-02T10:31:12.268Z,3.97
2023-01-02T10:33:52.815Z,4.50
2023-01-02T10:36:27.249Z,8.83
2023-01-02T10:39:07.798Z,3.30
2023-01-02T10:41:36.156Z,3.03
2023-01-02T10:44:12.667Z,3.27
2023-01-02T10:46:42.058Z,3.03
2023-01-02T10:49:10.100Z,2.80
2023-01-02T10:51:44.045Z,3.47
2023-01-02T10:54:11.803Z,3.50
2023-01-02T10:56:40.613Z,3.67
2023-01-02T10:59:28.310Z,3.17
2023-01-02T11:01:59.992Z,3.37
2023-01-02T11:04:29.685Z,3.00
2023-01-02T11:07:01.492Z,3.77
2023-01-02T11:09:35.856Z,3.13
2023-01-02T11:12:12.215Z,3.80
2023-01-02T11:14:40.096Z,4.00
2023-01-02T11:17:23.653Z,3.33
2023-01-02T11:19:56.200Z,2.93
2023-01-02T11:22:36.166Z,2.97
2023-01-02T11:25:08.071Z,3.13
2023-01-02T11:27:40.540Z,3.10
2023-01-02T11:30:21.269Z,4.03
2023-01-02T11:32:49.102Z,3.10
2023-01-02T11:35:42.048Z,2.60
2023-01-02T11:38:29.801Z,3.07
2023-01-02T11:41:02.668Z,3.43
2023-01-02T11:43:51.814Z,3.10
2023-01-02T11:46:36.476Z,2.97
2023-01-02T11:49:14.298Z,2.67
2023-01-02T11:51:42.778Z,2.93
2023-01-02T11:54:19.840Z,3.30
2023-01-02T11:56:47.497Z,3.47
2023-01-02T11:59:36.890Z,3.10
2023-01-02T12:02:25.045Z,2.93
2023-01-02T12:04:51.958Z,4.00
2023-01-02T12:07:47.757Z,3.70
2023-01-02T12:10:37.563Z,3.80
2023-01-02T12:13:41.514Z,2.80
2023-01-02T12:16:34.294Z,2.90
2023-01-02T12:19:15.521Z,2.93
2023-01-02T12:22:22.638Z,3.47
2023-01-02T12:25:25.950Z,4.03
2023-01-02T12:28:38.593Z,3.10
2023-01-02T12:31:40.150Z,3.33
2023-01-02T12:34:43.719Z,3.73
2023-01-02T12:37:37.485Z,3.90
2023-01-02T12:40:32.186Z,3.30
2023-01-02T12:43:43.050Z,2.93
2023-01-02T12:46:28.187Z,3.80
2023-01-02T12:49:22.617Z,3.73
2023-01-02T12:52:20.202Z,2.97
2023-01-02T12:55:52.574Z,2.40
2023-01-02T12:58:50.922Z,3.27
2023-01-02T13:01:37.356Z,2.50
2023-01-02T13:04:27.596Z,2.43
2023-01-02T13:07:04.313Z,3.77
2023-01-02T13:09:41.894Z,3.50
2023-01-02T13:12:21.538Z,3.90
2023-01-02T13:14:59.465Z,2.67
2023-01-02T13:17:52.896Z,2.97
2023-01-02T13:20:58.333Z,3.37
2023-01-02T13:23:43.398Z,3.20
2023-01-02T13:26:14.097Z,3.10
2023-01-02T13:28:58.824Z,3.30
2023-01-02T13:34:23.925Z,3.30
2023-01-02T13:37:04.607Z,3.17
2023-01-02T13:39:46.956Z,2.90
2023-01-02T13:42:45.925Z,3.53
2023-01-02T13:45:18.303Z,2.83
2023-01-02T13:48:00.761Z,2.77
2023-01-02T13:50:38.317Z,2.90
2023-01-02T13:53:10.238Z,3.50
2023-01-02T13:56:03.746Z,3.20
2023-01-02T13:59:42.829Z,2.97
2023-01-02T14:02:20.049Z,3.03
2023-01-02T14:04:47.291Z,3.40
2023-01-02T14:07:44.364Z,2.33
2023-01-02T14:10:27.384Z,2.37
2023-01-02T14:13:02.214Z,2.60
2023-01-02T14:15:30.894Z,2.43
2023-01-02T14:18:05.381Z,2.50
2023-01-02T14:20:35.937Z,2.10
2023-01-02T14:23:09.848Z,2.27
2023-01-02T14:25:49.233Z,2.37
2023-01-02T14:28:27.083Z,2.63
2023-01-02T14:30:55.027Z,3.00
2023-01-02T14:33:33.589Z,2.33
2023-01-02T14:36:12.229Z,2.10
2023-01-02T14:38:54.728Z,2.33
2023-01-02T14:42:23.682Z,2.27
2023-01-02T14:45:00.016Z,2.10
2023-01-02T14:47:39.717Z,1.67
2023-01-02T14:50:30.562Z,2.43
2023-01-02T14:53:12.904Z,2.30
2023-01-02T14:55:42.235Z,2.00
2023-01-02T14:58:40.839Z,2.10
2023-01-02T15:01:08.774Z,1.80
2023-01-02T15:04:14.211Z,2.00
2023-01-02T15:07:23.229Z,3.80
2023-01-02T15:10:06.476Z,4.13
2023-01-02T15:13:01.700Z,2.70
2023-01-02T15:15:30.522Z,2.20
2023-01-02T15:18:03.798Z,1.83
2023-01-02T15:20:34.154Z,2.33
2023-01-02T15:23:01.584Z,2.37
2023-01-02T15:25:40.993Z,2.47
2023-01-02T15:28:33.229Z,1.40
2023-01-02T15:31:15.799Z,2.50
2023-01-02T15:33:42.840Z,3.10
2023-01-02T15:36:14.550Z,1.50
2023-01-02T15:38:42.917Z,2.10
2023-01-02T15:41:18.929Z,1.80
2023-01-02T15:44:04.866Z,1.60
2023-01-02T15:46:32.097Z,1.30
2023-01-02T15:49:00.086Z,1.40
2023-01-02T15:51:40.561Z,1.30
2023-01-02T15:54:15.121Z,1.20
2023-01-02T15:56:42.453Z,1.13
2023-01-02T15:59:34.280Z,0.93
2023-01-02T16:02:02.844Z,0.63
2023-01-02T16:04:32.736Z,0.93
2023-01-02T16:07:26.498Z,0.70
2023-01-02T16:09:56.214Z,0.90
2023-01-02T16:12:23.902Z,0.60
2023-01-02T16:14:55.885Z,0.63
2023-01-02T16:17:34.745Z,0.70
2023-01-02T16:20:07.556Z,1.10
2023-01-02T16:23:01.679Z,0.63
2023-01-02T16:25:37.202Z,0.60
2023-01-02T16:28:36.261Z,0.80
2023-01-02T16:31:18.112Z,0.60
2023-01-02T16:33:46.095Z,0.60
2023-01-02T16:36:15.773Z,1.03
2023-01-02T16:38:52.316Z,1.00
2023-01-02T16:41:45.170Z,0.70
2023-01-02T16:44:19.941Z,0.70
2023-01-02T16:46:48.964Z,0.87
2023-01-02T16:49:22.403Z,0.70
2023-01-02T16:51:51.980Z,0.90
2023-01-02T16:54:19.987Z,0.80
2023-01-02T16:56:47.819Z,0.70
2023-01-02T16:59:14.696Z,0.73
2023-01-02T17:01:41.761Z,0.77
2023-01-02T17:04:12.019Z,0.70
2023-01-02T17:06:38.916Z,1.00
2023-01-02T17:09:05.795Z,0.70
2023-01-02T17:11:32.691Z,0.70
2023-01-02T17:14:01.154Z,1.17
2023-01-02T17:16:28.140Z,1.10
2023-01-02T17:18:55.071Z,1.00
2023-01-02T17:21:24.190Z,1.00
2023-01-02T17:23:55.241Z,0.70
2023-01-02T17:26:22.166Z,0.67
2023-01-02T17:28:49.037Z,0.70
2023-01-02T17:31:18.906Z,1.23
2023-01-02T17:33:49.514Z,0.70
2023-01-02T17:36:16.427Z,0.70
2023-01-02T17:38:43.321Z,0.70
2023-01-02T17:41:10.214Z,0.80
2023-01-02T17:43:37.082Z,0.70
2023-01-02T17:46:30.801Z,0.97
2023-01-02T17:48:55.292Z,0.60
2023-01-02T17:51:22.232Z,0.97
2023-01-02T17:53:52.709Z,1.10
2023-01-02T17:56:22.394Z,1.83
2023-01-02T17:58:49.816Z,2.07
2023-01-02T18:01:19.852Z,1.70
2023-01-02T18:03:47.126Z,1.07
2023-01-02T18:06:15.242Z,2.33
2023-01-02T18:08:43.020Z,1.10
2023-01-02T18:11:15.456Z,1.00
2023-01-02T18:13:54.436Z,1.20
2023-01-02T18:16:38.257Z,2.13
2023-01-02T18:19:13.510Z,2.10
2023-01-02T18:21:40.661Z,1.60
2023-01-02T18:24:14.446Z,2.87
2023-01-02T18:26:41.465Z,3.13
2023-01-02T18:29:24.339Z,2.43
2023-01-02T18:31:51.611Z,3.30
2023-01-02T18:34:48.198Z,3.20
2023-01-02T18:37:23.396Z,2.53
2023-01-02T18:39:50.784Z,2.57
2023-01-02T18:42:21.996Z,3.23
2023-01-02T18:44:51.415Z,2.37
2023-01-02T18:47:31.815Z,2.63
2023-01-02T18:50:33.918Z,2.70
2023-01-02T18:53:16.468Z,3.10
2023-01-02T18:55:43.795Z,2.73
2023-01-02T18:58:37.615Z,2.67
2023-01-02T19:01:25.752Z,2.53
2023-01-02T19:03:58.085Z,3.07
2023-01-02T19:06:28.116Z,3.10
2023-01-02T19:09:02.359Z,2.30
2023-01-02T19:11:56.362Z,3.67
2023-01-02T19:14:26.261Z,2.70
2023-01-02T19:17:13.912Z,2.27
2023-01-02T19:19:40.992Z,2.13
2023-01-02T19:22:21.452Z,2.40
2023-01-02T19:24:48.808Z,1.50
2023-01-02T19:27:33.597Z,1.80
2023-01-02T19:30:25.801Z,1.60
2023-01-02T19:32:53.032Z,1.37
2023-01-02T19:35:25.687Z,1.50
2023-01-02T19:37:52.632Z,1.40
2023-01-02T19:40:23.801Z,1.80
2023-01-02T19:42:53.370Z,1.60
2023-01-02T19:45:23.915Z,1.90
2023-01-02T19:47:52.206Z,1.80
2023-01-02T19:50:25.427Z,1.50
2023-01-02T19:52:52.509Z,3.40
2023-01-02T19:55:19.770Z,1.97
2023-01-02T19:57:47.281Z,1.60
2023-01-02T20:00:16.342Z,1.93
2023-01-02T20:02:45.643Z,1.77
2023-01-02T20:05:20.828Z,2.10
2023-01-02T20:07:49.981Z,2.50
2023-01-02T20:10:17.602Z,2.40
2023-01-02T20:12:44.902Z,2.63
2023-01-02T20:15:23.425Z,2.10
2023-01-02T20:17:51.990Z,2.30
2023-01-02T20:20:22.810Z,2.30
2023-01-02T20:22:51.728Z,1.83
2023-01-02T20:25:23.965Z,2.10
2023-01-02T20:27:52.594Z,2.10
2023-01-02T20:30:24.237Z,2.20
2023-01-02T20:32:52.472Z,3.03
2023-01-02T20:35:19.351Z,1.80
2023-01-02T20:37:46.694Z,2.07
2023-01-02T20:40:13.675Z,1.83
2023-01-02T20:42:40.656Z,1.77
2023-01-02T20:45:08.429Z,2.20
2023-01-02T20:47:36.311Z,1.70
2023-01-02T20:50:04.884Z,2.07
2023-01-02T20:52:31.793Z,2.10
2023-01-02T20:54:59.380Z,1.93
2023-01-02T20:57:26.322Z,1.97
2023-01-02T20:59:53.280Z,1.77
2023-01-02T21:02:20.301Z,2.00
2023-01-02T21:04:47.241Z,1.60
2023-01-02T21:07:14.115Z,1.50
2023-01-02T21:09:41.001Z,1.27
2023-01-02T21:12:27.851Z,1.50
2023-01-02T21:14:54.743Z,1.50
2023-01-02T21:17:21.648Z,1.20
2023-01-02T21:19:48.514Z,1.80
2023-01-02T21:22:15.415Z,1.30
2023-01-02T21:24:43.596Z,1.00
2023-01-02T21:27:13.196Z,1.10
2023-01-02T21:29:40.542Z,1.30
2023-01-02T21:32:07.698Z,1.30
2023-01-02T21:34:34.573Z,1.10
2023-01-02T21:37:01.509Z,1.23
2023-01-02T21:39:28.420Z,1.13
2023-01-02T21:42:13.919Z,1.60
2023-01-02T21:44:40.803Z,1.67
2023-01-02T21:47:08.090Z,1.50
2023-01-02T21:49:35.012Z,1.43
2023-01-02T21:52:02.283Z,1.40
2023-01-02T21:54:29.315Z,1.20
2023-01-02T21:56:56.237Z,1.53
2023-01-02T21:59:25.418Z,1.63
2023-01-02T22:01:53.322Z,1.33
2023-01-02T22:04:21.262Z,1.47
2023-01-02T22:07:30.677Z,1.80
2023-01-02T22:09:36.375Z,1.33
2023-01-02T22:12:03.313Z,2.00
2023-01-02T22:14:38.172Z,1.67
2023-01-02T22:17:09.038Z,1.20
2023-01-02T22:19:36.738Z,1.87
2023-01-02T22:22:04.549Z,1.80
2023-01-02T22:24:31.818Z,1.97
2023-01-02T22:27:04.095Z,1.93
2023-01-02T22:30:00.321Z,1.87
2023-01-02T22:32:19.750Z,1.93
2023-01-02T22:34:46.856Z,1.93
2023-01-02T22:37:22.119Z,2.93
2023-01-02T22:39:49.756Z,1.93
2023-01-02T22:43:03.399Z,1.90
2023-01-02T22:45:45.241Z,2.63
2023-01-02T22:48:19.919Z,2.00
2023-01-02T22:50:48.275Z,1.87
2023-01-02T22:53:35.473Z,2.20
2023-01-02T22:56:19.523Z,2.43
2023-01-02T22:58:47.640Z,2.00
2023-01-02T23:01:36.523Z,1.70
2023-01-02T23:04:03.987Z,1.90
2023-01-02T23:06:31.455Z,2.13
2023-01-02T23:08:58.585Z,1.60
2023-01-02T23:11:25.503Z,1.90
2023-01-02T23:13:56.594Z,2.40
2023-01-02T23:16:42.651Z,1.70
2023-01-02T23:19:15.809Z,1.93
2023-01-02T23:21:45.617Z,1.50
2023-01-02T23:24:16.976Z,1.90
2023-01-02T23:26:48.231Z,1.70
2023-01-02T23:29:15.892Z,1.70
2023-01-02T23:31:47.042Z,2.20
2023-01-02T23:34:19.892Z,2.10
2023-01-02T23:36:47.157Z,1.63
2023-01-02T23:39:17.943Z,2.00
2023-01-02T23:41:45.583Z,2.23
2023-01-02T23:44:13.378Z,1.80
2023-01-02T23:46:40.795Z,1.80
2023-01-02T23:49:09.964Z,2.70
2023-01-02T23:51:38.997Z,1.80
2023-01-02T23:54:07.275Z,2.43
2023-01-02T23:56:39.276Z,3.30
2023-01-02T23:59:10.194Z,2.80
